Singersville, Pennsylvania
Current Conditions -  °F | °C
As of 8:56 AM on Wednesday 22 Oct 2014 (Local Time) from KCXY Reporting Station
Overcast Overcast  
Wind Chill: 56°   Ceiling: 2500
Heat Index: 56°   Visibility: 10mi
Dew Point: 47°   Wind: 9mph
Humidity: 72%   Direction: 360°N
Pressure: 29.97"   Gusts: 16mph
Location:  40.4076°N, 76.8769°W
Report Text: KCXY 221256Z 36008G14KT 10SM OVC025 13/08 A2997 RMK AO2 SLP149 T01330083
Loading
Personal Weather Stations






























Interactive Weather Map
Tropical Storm Tracking
New forecast layout! Learn more

10-Day Weather Forecast

Advertisements
Track Severe Weather on mobile